createdAt,value
2022-12-18T00:00:30.371Z,-4.33
2022-12-18T00:05:32.395Z,-4.33
2022-12-18T00:10:34.397Z,-4.31
2022-12-18T00:15:37.448Z,-4.33
2022-12-18T00:20:40.683Z,-4.34
2022-12-18T00:25:42.682Z,-4.34
2022-12-18T00:30:44.771Z,-4.35
2022-12-18T00:35:46.791Z,-4.36
2022-12-18T00:40:50.197Z,-4.37
2022-12-18T00:45:52.283Z,-4.37
2022-12-18T00:50:54.410Z,-4.38
2022-12-18T00:55:56.450Z,-4.37
2022-12-18T01:00:58.423Z,-4.39
2022-12-18T01:06:00.387Z,-4.40
2022-12-18T01:11:09.317Z,-4.39
2022-12-18T01:16:17.009Z,-4.40
2022-12-18T01:21:19.015Z,-4.41
2022-12-18T01:26:21.049Z,-4.40
2022-12-18T01:31:25.881Z,-4.40
2022-12-18T01:36:33.265Z,-4.41
2022-12-18T01:41:54.334Z,-4.42
2022-12-18T01:46:56.343Z,-4.42
2022-12-18T01:51:58.289Z,-4.42
2022-12-18T01:57:02.178Z,-4.44
2022-12-18T02:07:39.236Z,-4.43
2022-12-18T02:12:50.755Z,-4.42
2022-12-18T02:18:29.226Z,-4.42
2022-12-18T02:23:49.815Z,-4.45
2022-12-18T02:29:02.000Z,-4.43
2022-12-18T02:34:07.988Z,-4.43
2022-12-18T02:39:13.568Z,-4.43
2022-12-18T02:44:16.093Z,-4.44
2022-12-18T02:49:38.612Z,-4.44
2022-12-18T02:54:54.401Z,-4.45
2022-12-18T03:00:03.128Z,-4.45
2022-12-18T03:05:16.562Z,-4.46
2022-12-18T03:10:25.794Z,-4.46
2022-12-18T03:15:38.962Z,-4.48
2022-12-18T03:20:44.725Z,-4.48
2022-12-18T03:25:49.645Z,-4.50
2022-12-18T03:30:58.685Z,-4.51
2022-12-18T03:36:00.675Z,-4.52
2022-12-18T03:41:15.728Z,-4.53
2022-12-18T03:46:27.551Z,-4.55
2022-12-18T03:51:47.755Z,-4.54
2022-12-18T03:56:58.457Z,-4.55
2022-12-18T04:02:02.952Z,-4.57
2022-12-18T04:07:06.003Z,-4.57
2022-12-18T04:12:08.130Z,-4.57
2022-12-18T04:17:10.234Z,-4.57
2022-12-18T04:22:12.260Z,-4.58
2022-12-18T04:27:14.334Z,-4.56
2022-12-18T04:32:16.238Z,-4.57
2022-12-18T04:37:18.260Z,-4.57
2022-12-18T04:42:20.288Z,-4.56
2022-12-18T04:47:22.356Z,-4.57
2022-12-18T04:52:24.502Z,-4.57
2022-12-18T04:57:27.443Z,-4.56
2022-12-18T05:02:29.546Z,-4.57
2022-12-18T05:07:31.693Z,-4.57
2022-12-18T05:12:33.742Z,-4.56
2022-12-18T05:17:35.750Z,-4.55
2022-12-18T05:22:37.700Z,-4.55
2022-12-18T05:27:39.672Z,-4.55
2022-12-18T05:32:42.020Z,-4.56
2022-12-18T05:37:43.991Z,-4.55
2022-12-18T05:42:46.018Z,-4.57
2022-12-18T05:47:48.012Z,-4.56
2022-12-18T05:52:49.951Z,-4.56
2022-12-18T05:57:52.156Z,-4.57
2022-12-18T06:02:54.282Z,-4.57
2022-12-18T06:07:56.355Z,-4.56
2022-12-18T06:12:58.434Z,-4.55
2022-12-18T06:18:02.038Z,-4.56
2022-12-18T06:23:04.840Z,-4.56
2022-12-18T06:28:07.150Z,-4.56
2022-12-18T06:33:09.244Z,-4.57
2022-12-18T06:38:11.328Z,-4.55
2022-12-18T06:43:13.354Z,-4.55
2022-12-18T06:48:15.458Z,-4.52
2022-12-18T06:53:17.422Z,-4.52
2022-12-18T06:58:19.666Z,-4.53
2022-12-18T07:03:21.682Z,-4.53
2022-12-18T07:08:23.722Z,-4.53
2022-12-18T07:13:25.925Z,-4.53
2022-12-18T07:18:27.957Z,-4.52
2022-12-18T07:23:29.923Z,-4.52
2022-12-18T07:28:33.482Z,-4.51
2022-12-18T07:33:36.043Z,-4.51
2022-12-18T07:38:38.826Z,-4.49
2022-12-18T07:43:42.480Z,-4.49
2022-12-18T07:48:49.584Z,-4.48
2022-12-18T07:53:52.745Z,-4.47
2022-12-18T07:58:55.328Z,-4.46
2022-12-18T08:03:58.384Z,-4.45
2022-12-18T08:09:00.457Z,-4.44
2022-12-18T08:14:02.509Z,-4.44
2022-12-18T08:19:04.874Z,-4.41
2022-12-18T08:24:07.210Z,-4.41
2022-12-18T08:29:10.333Z,-4.38
2022-12-18T08:34:12.347Z,-4.39
2022-12-18T08:39:14.411Z,-4.37
2022-12-18T08:44:49.821Z,-4.35
2022-12-18T08:49:51.838Z,-4.37
2022-12-18T08:54:53.837Z,-4.32
2022-12-18T08:59:55.815Z,-4.30
2022-12-18T09:04:58.027Z,-4.28
2022-12-18T09:10:00.014Z,-4.25
2022-12-18T09:15:02.018Z,-4.23
2022-12-18T09:20:04.528Z,-4.21
2022-12-18T09:25:09.269Z,-4.17
2022-12-18T09:30:11.869Z,-4.14
2022-12-18T09:35:13.963Z,-4.11
2022-12-18T09:40:21.381Z,-4.08
2022-12-18T09:45:24.924Z,-4.08
2022-12-18T09:50:35.815Z,-4.03
2022-12-18T09:55:41.510Z,-4.01
2022-12-18T10:00:44.489Z,-3.99
2022-12-18T10:06:14.545Z,-3.97
2022-12-18T10:11:55.325Z,-3.97
2022-12-18T10:17:19.087Z,-3.95
2022-12-18T10:22:47.343Z,-3.94
2022-12-18T10:27:53.015Z,-3.93
2022-12-18T10:32:57.447Z,-3.96
2022-12-18T10:38:05.182Z,-4.01
2022-12-18T10:43:14.500Z,-4.01
2022-12-18T10:48:23.733Z,-4.06
2022-12-18T10:53:28.277Z,-4.04
2022-12-18T10:58:41.026Z,-4.01
2022-12-18T11:03:56.371Z,-4.06
2022-12-18T11:09:09.345Z,-4.11
2022-12-18T11:14:22.926Z,-4.20
2022-12-18T11:19:38.428Z,-4.17
2022-12-18T11:24:41.153Z,-4.20
2022-12-18T11:29:46.559Z,-4.21
2022-12-18T11:34:59.041Z,-4.29
2022-12-18T11:40:09.503Z,-4.39
2022-12-18T11:45:14.528Z,-4.35
2022-12-18T11:50:25.415Z,-4.31
2022-12-18T11:55:27.441Z,-4.42
2022-12-18T12:00:30.077Z,-4.46
2022-12-18T12:05:57.197Z,-4.39
2022-12-18T12:11:20.734Z,-4.40
2022-12-18T12:16:34.743Z,-4.43
2022-12-18T12:21:48.487Z,-4.50
2022-12-18T12:27:03.207Z,-4.52
2022-12-18T12:32:47.166Z,-4.52
2022-12-18T12:38:08.115Z,-4.54
2022-12-18T12:43:26.616Z,-4.57
2022-12-18T12:48:51.613Z,-4.61
2022-12-18T12:53:57.740Z,-4.56
2022-12-18T12:59:19.057Z,-4.56
2022-12-18T13:04:42.168Z,-4.58
2022-12-18T13:10:14.424Z,-4.58
2022-12-18T13:15:25.806Z,-4.58
2022-12-18T13:20:35.258Z,-4.66
2022-12-18T13:25:39.060Z,-4.70
2022-12-18T13:30:53.273Z,-4.74
2022-12-18T13:36:03.888Z,-4.80
2022-12-18T13:41:24.520Z,-4.86
2022-12-18T13:46:50.871Z,-4.95
2022-12-18T13:51:55.886Z,-5.00
2022-12-18T13:56:58.033Z,-5.04
2022-12-18T14:02:04.352Z,-5.18
2022-12-18T14:07:15.432Z,-5.23
2022-12-18T14:12:43.977Z,-5.33
2022-12-18T14:17:48.389Z,-5.33
2022-12-18T14:22:51.183Z,-5.31
2022-12-18T14:28:11.593Z,-5.31
2022-12-18T14:33:16.746Z,-5.50
2022-12-18T14:38:24.047Z,-5.55
2022-12-18T14:43:27.344Z,-5.57
2022-12-18T14:48:44.196Z,-5.64
2022-12-18T14:53:54.338Z,-5.54
2022-12-18T14:59:05.037Z,-5.57
2022-12-18T15:04:23.704Z,-5.62
2022-12-18T15:09:27.912Z,-5.75
2022-12-18T15:14:43.352Z,-5.76
2022-12-18T15:19:47.934Z,-5.85
2022-12-18T15:24:51.403Z,-5.91
2022-12-18T15:30:20.237Z,-5.90
2022-12-18T15:35:23.851Z,-5.95
2022-12-18T15:40:26.711Z,-5.91
2022-12-18T15:45:30.122Z,-6.04
2022-12-18T15:50:32.952Z,-6.20
2022-12-18T15:56:00.719Z,-6.12
2022-12-18T16:01:04.199Z,-6.16
2022-12-18T16:06:09.056Z,-6.14
2022-12-18T16:11:45.330Z,-6.36
2022-12-18T16:16:52.555Z,-6.45
2022-12-18T16:21:58.353Z,-6.42
2022-12-18T16:27:02.214Z,-6.35
2022-12-18T16:32:04.898Z,-6.38
2022-12-18T16:37:11.776Z,-6.30
2022-12-18T16:42:20.778Z,-6.29
2022-12-18T16:47:23.544Z,-6.30
2022-12-18T16:52:26.793Z,-6.34
2022-12-18T16:57:29.944Z,-6.42
2022-12-18T17:02:33.639Z,-6.43
2022-12-18T17:07:37.069Z,-6.45
2022-12-18T17:12:40.001Z,-6.45
2022-12-18T17:17:42.557Z,-6.58
2022-12-18T17:22:46.716Z,-6.57
2022-12-18T17:27:52.240Z,-6.58
2022-12-18T17:32:55.385Z,-6.63
2022-12-18T17:37:58.652Z,-6.58
2022-12-18T17:43:01.593Z,-6.63
2022-12-18T17:48:06.397Z,-6.70
2022-12-18T17:53:09.896Z,-6.71
2022-12-18T17:58:13.441Z,-6.74
2022-12-18T18:03:16.965Z,-6.80
2022-12-18T18:08:23.396Z,-6.73
2022-12-18T18:13:47.141Z,-6.82
2022-12-18T18:18:50.379Z,-6.82
2022-12-18T18:23:54.988Z,-6.84
2022-12-18T18:28:59.439Z,-6.78
2022-12-18T18:34:05.215Z,-6.83
2022-12-18T18:39:09.419Z,-6.82
2022-12-18T18:44:13.866Z,-6.86
2022-12-18T18:49:20.072Z,-6.92
2022-12-18T18:54:23.818Z,-7.05
2022-12-18T18:59:31.582Z,-6.99
2022-12-18T19:04:35.075Z,-7.00
2022-12-18T19:09:38.323Z,-7.00
2022-12-18T19:14:43.577Z,-7.03
2022-12-18T19:19:46.277Z,-7.11
2022-12-18T19:24:49.479Z,-7.03
2022-12-18T19:29:52.505Z,-7.04
2022-12-18T19:34:55.458Z,-7.06
2022-12-18T19:39:59.418Z,-7.06
2022-12-18T19:45:06.697Z,-7.03
2022-12-18T19:50:10.968Z,-7.08
2022-12-18T19:55:14.518Z,-7.11
2022-12-18T20:00:19.003Z,-7.10
2022-12-18T20:05:25.628Z,-7.11
2022-12-18T20:10:28.413Z,-7.13
2022-12-18T20:15:32.860Z,-7.14
2022-12-18T20:20:35.922Z,-7.12
2022-12-18T20:25:39.971Z,-7.17
2022-12-18T20:30:42.685Z,-7.25
2022-12-18T20:35:46.133Z,-7.35
2022-12-18T20:40:50.854Z,-7.44
2022-12-18T20:46:01.914Z,-7.47
2022-12-18T20:51:07.562Z,-7.55
2022-12-18T20:56:12.682Z,-7.52
2022-12-18T21:01:17.926Z,-7.50
2022-12-18T21:06:22.805Z,-7.55
2022-12-18T21:11:50.226Z,-7.55
2022-12-18T21:16:55.471Z,-7.56
2022-12-18T21:21:58.964Z,-7.55
2022-12-18T21:27:02.104Z,-7.52
2022-12-18T21:32:05.828Z,-7.52
2022-12-18T21:37:07.946Z,-7.60
2022-12-18T21:42:30.661Z,-7.55
2022-12-18T21:47:32.638Z,-7.53
2022-12-18T21:52:34.661Z,-7.51
2022-12-18T21:57:37.894Z,-7.51
2022-12-18T22:02:40.060Z,-7.57
2022-12-18T22:07:42.285Z,-7.64
2022-12-18T22:12:45.834Z,-7.65
2022-12-18T22:17:48.034Z,-7.67
2022-12-18T22:22:51.980Z,-7.62
2022-12-18T22:28:12.411Z,-7.60
2022-12-18T22:33:14.435Z,-7.63
2022-12-18T22:38:17.829Z,-7.66
2022-12-18T22:43:19.807Z,-7.68
2022-12-18T22:48:22.129Z,-7.68
2022-12-18T22:53:24.240Z,-7.67
2022-12-18T22:58:26.433Z,-7.66
2022-12-18T23:03:29.088Z,-7.64
2022-12-18T23:08:31.212Z,-7.60
2022-12-18T23:13:34.878Z,-7.64
2022-12-18T23:18:37.182Z,-7.64
2022-12-18T23:23:39.799Z,-7.63
2022-12-18T23:28:42.446Z,-7.63
2022-12-18T23:33:45.756Z,-7.60
2022-12-18T23:38:52.436Z,-7.62
2022-12-18T23:43:55.079Z,-7.60
2022-12-18T23:49:02.719Z,-7.56
2022-12-18T23:54:06.947Z,-7.53
2022-12-18T23:59:09.062Z,-7.53
